Time;durP1;ratioP1;P1;durP2;ratioP2;P2;SDS_P1;SDS_P2;PMS_P1;PMS_P2;Temp;Humidity;BMP_temperature;BMP_pressure;BME280_temperature;BME280_humidity;BME280_pressure;Samples;Min_cycle;Max_cycle;Signal;HPM_P1;HPM_P2
2023/01/28 00:00:50;;;;;;;;;;;;;;;5.58;54.08;99103.44;4482553;32;35196;-83
2023/01/28 00:03:17;;;;;;;;;;;;;;;5.33;54.71;99114.59;4482554;32;34070;-84
2023/01/28 00:05:44;;;;;;;;;;;;;;;5.68;53.58;99107.13;4467714;32;33838;-84
2023/01/28 00:08:13;;;;;;;;;;;;;;;5.95;53.43;99117.47;4473048;31;34255;-83
2023/01/28 00:10:41;;;;;;;;;;;;;;;7.18;50.23;99127.75;4488629;31;34600;-83
2023/01/28 00:13:10;;;;;;;;;;;;;;;6.76;50.98;99110.34;4482994;32;33293;-81
2023/01/28 00:15:37;;;;;;;;;;;;;;;6.22;52.38;99120.84;4485567;31;32958;-82
2023/01/28 00:18:04;;;;;;;;;;;;;;;6.73;51.10;99114.53;4499726;31;34354;-83
2023/01/28 00:20:32;;;;;;;;;;;;;;;6.72;51.09;99116.25;4499822;31;34184;-82
2023/01/28 00:22:59;;;;;;;;;;;;;;;6.97;50.43;99116.87;4489787;31;33233;-84
2023/01/28 00:25:26;;;;;;;;;;;;;;;6.76;50.55;99118.06;4483764;32;34199;-83
2023/01/28 00:27:54;;;;;;;;;;;;;;;6.34;52.17;99116.03;4483879;32;34378;-84
2023/01/28 00:30:22;;;;;;;;;;;;;;;6.53;51.78;99120.00;4487849;31;34225;-81
2023/01/28 00:32:49;;;;;;;;;;;;;;;6.34;52.18;99123.78;4493034;31;34138;-82
2023/01/28 00:35:18;;;;;;;;;;;;;;;5.52;54.57;99111.81;4484125;31;33172;-83
2023/01/28 00:37:46;;;;;;;;;;;;;;;5.68;54.14;99131.16;4486184;31;34201;-81
2023/01/28 00:40:13;;;;;;;;;;;;;;;5.69;54.08;99120.06;4481213;31;33340;-82
2023/01/28 00:42:41;;;;;;;;;;;;;;;6.85;50.80;99126.88;4491983;31;32949;-83
2023/01/28 00:45:09;;;;;;;;;;;;;;;6.42;51.89;99128.28;4494932;31;33798;-83
2023/01/28 00:47:37;;;;;;;;;;;;;;;6.51;51.55;99123.38;4483577;32;34142;-84
2023/01/28 00:50:04;;;;;;;;;;;;;;;6.08;52.74;99135.88;4489140;31;34637;-81
2023/01/28 00:52:32;;;;;;;;;;;;;;;6.55;51.59;99132.91;4488515;31;34440;-82
2023/01/28 00:54:59;;;;;;;;;;;;;;;6.33;52.08;99132.34;4483180;32;34403;-82
2023/01/28 00:57:36;;;;;;;;;;;;;;;5.10;55.30;99136.97;4483286;32;34048;-83
2023/01/28 01:00:04;;;;;;;;;;;;;;;6.02;52.99;99138.28;4483096;32;34885;-84
2023/01/28 01:02:31;;;;;;;;;;;;;;;6.83;50.85;99134.56;4495102;31;34295;-85
2023/01/28 01:04:58;;;;;;;;;;;;;;;5.72;53.70;99138.19;4490871;31;34008;-84
2023/01/28 01:07:42;;;;;;;;;;;;;;;6.28;52.05;99138.16;4483879;32;34363;-85
2023/01/28 01:10:11;;;;;;;;;;;;;;;5.99;53.04;99137.31;4482581;32;34897;-84
2023/01/28 01:12:39;;;;;;;;;;;;;;;6.77;51.06;99139.56;4483904;32;33249;-85
2023/01/28 01:15:09;;;;;;;;;;;;;;;7.17;49.88;99140.63;4483542;31;34128;-82
2023/01/28 01:17:37;;;;;;;;;;;;;;;6.75;50.63;99134.38;4469622;32;34092;-85
2023/01/28 01:20:06;;;;;;;;;;;;;;;7.64;48.28;99128.03;4483930;31;34889;-84
2023/01/28 01:22:35;;;;;;;;;;;;;;;7.51;48.61;99148.37;4483841;32;33296;-84
2023/01/28 01:25:04;;;;;;;;;;;;;;;7.45;48.56;99127.56;4483504;31;34474;-84
2023/01/28 01:27:31;;;;;;;;;;;;;;;6.50;50.96;99142.22;4483625;31;34830;-82
2023/01/28 01:29:58;;;;;;;;;;;;;;;6.13;52.12;99137.72;4490540;31;33915;-84
2023/01/28 01:32:29;;;;;;;;;;;;;;;6.37;51.48;99137.56;4486120;31;34321;-82
2023/01/28 01:34:57;;;;;;;;;;;;;;;7.08;49.53;99141.22;4485941;31;34927;-84
2023/01/28 01:37:24;;;;;;;;;;;;;;;7.67;48.19;99139.28;4483616;31;35218;-85
2023/01/28 01:39:51;;;;;;;;;;;;;;;7.52;48.11;99146.66;4487797;31;33019;-83
2023/01/28 01:42:19;;;;;;;;;;;;;;;7.39;48.47;99144.62;4483952;32;33469;-85
2023/01/28 01:45:05;;;;;;;;;;;;;;;7.56;47.99;99133.00;4483630;31;35102;-82
2023/01/28 01:47:33;;;;;;;;;;;;;;;7.82;47.32;99140.50;4480057;31;34414;-84
2023/01/28 01:50:01;;;;;;;;;;;;;;;7.78;47.19;99130.09;4489778;31;34149;-82
2023/01/28 01:52:30;;;;;;;;;;;;;;;6.96;49.28;99149.53;4499134;31;36083;-85
2023/01/28 01:54:58;;;;;;;;;;;;;;;7.18;49.05;99147.50;4476511;31;34298;-83
2023/01/28 01:57:27;;;;;;;;;;;;;;;6.55;50.77;99149.28;4486778;31;35059;-83
2023/01/28 01:59:54;;;;;;;;;;;;;;;7.34;49.01;99152.22;4474550;31;34253;-84
2023/01/28 02:02:22;;;;;;;;;;;;;;;7.07;49.67;99155.84;4477448;31;32928;-79
2023/01/28 02:04:49;;;;;;;;;;;;;;;7.76;47.79;99147.22;4477975;31;33991;-84
2023/01/28 02:07:16;;;;;;;;;;;;;;;7.63;48.22;99145.22;4488383;31;34299;-83
2023/01/28 02:09:47;;;;;;;;;;;;;;;6.81;50.42;99151.69;4479415;31;34093;-80
2023/01/28 02:12:18;;;;;;;;;;;;;;;7.82;47.98;99143.06;4487870;31;33464;-85
2023/01/28 02:14:50;;;;;;;;;;;;;;;7.44;48.90;99151.62;4483234;31;33775;-84
2023/01/28 02:17:18;;;;;;;;;;;;;;;7.94;47.55;99138.19;4498810;31;34662;-83
2023/01/28 02:19:45;;;;;;;;;;;;;;;6.76;50.68;99149.00;4482297;31;34324;-84
2023/01/28 02:22:31;;;;;;;;;;;;;;;6.88;49.88;99139.84;4491798;31;33560;-85
2023/01/28 02:25:11;;;;;;;;;;;;;;;6.49;51.45;99150.78;4488041;31;33983;-83
2023/01/28 02:27:57;;;;;;;;;;;;;;;7.26;49.61;99149.44;4473084;31;34352;-84
2023/01/28 02:30:27;;;;;;;;;;;;;;;7.36;49.02;99144.53;4488280;31;34308;-81
2023/01/28 02:32:56;;;;;;;;;;;;;;;7.50;48.85;99135.41;4470493;32;34629;-85
2023/01/28 02:35:27;;;;;;;;;;;;;;;6.81;50.27;99139.66;4468956;32;34183;-84
2023/01/28 02:37:59;;;;;;;;;;;;;;;7.02;49.98;99138.53;4469601;31;34507;-85
2023/01/28 02:40:33;;;;;;;;;;;;;;;8.12;47.27;99135.16;4471463;32;34899;-84
2023/01/28 02:43:00;;;;;;;;;;;;;;;6.85;49.95;99140.63;4470793;32;33561;-86
2023/01/28 02:48:18;;;;;;;;;;;;;;;7.15;49.37;99140.56;4449202;31;34818;-84
2023/01/28 02:50:48;;;;;;;;;;;;;;;7.16;49.29;99134.59;4482543;31;33761;-83
2023/01/28 02:56:16;;;;;;;;;;;;;;;6.69;50.87;99141.91;4482926;31;33961;-85
2023/01/28 02:58:49;;;;;;;;;;;;;;;7.18;49.30;99143.22;4483096;31;34056;-82
2023/01/28 03:01:26;;;;;;;;;;;;;;;7.17;49.28;99141.50;4479693;31;34921;-85
2023/01/28 03:03:58;;;;;;;;;;;;;;;5.91;52.71;99138.72;4494308;31;33011;-86
2023/01/28 03:06:52;;;;;;;;;;;;;;;6.91;50.06;99142.50;4473119;31;34090;-81
2023/01/28 03:09:23;;;;;;;;;;;;;;;5.59;53.78;99134.31;4490382;31;33657;-84
2023/01/28 03:38:17;;;;;;;;;;;;;;;5.66;54.44;99150.84;4474033;31;33303;-84
2023/01/28 03:40:51;;;;;;;;;;;;;;;6.16;53.24;99146.41;4477480;31;33673;-86
2023/01/28 03:43:18;;;;;;;;;;;;;;;6.08;53.37;99151.31;4474575;31;34197;-85
2023/01/28 03:45:50;;;;;;;;;;;;;;;7.08;50.88;99159.28;4478380;31;33971;-85
2023/01/28 03:48:18;;;;;;;;;;;;;;;6.41;52.31;99158.31;4495241;31;31783;-86
2023/01/28 03:50:45;;;;;;;;;;;;;;;5.58;54.31;99157.44;4484528;31;34262;-85
2023/01/28 03:53:14;;;;;;;;;;;;;;;5.74;54.27;99159.66;4489122;31;33872;-84
2023/01/28 03:55:43;;;;;;;;;;;;;;;6.09;53.48;99162.47;4479333;32;34592;-85
2023/01/28 03:58:11;;;;;;;;;;;;;;;5.43;54.86;99168.09;4487806;31;33306;-86
2023/01/28 04:00:42;;;;;;;;;;;;;;;5.79;54.31;99165.81;4486254;31;35119;-85
2023/01/28 04:03:16;;;;;;;;;;;;;;;6.58;52.18;99163.94;4484708;31;35159;-86
2023/01/28 04:06:06;;;;;;;;;;;;;;;5.84;53.87;99161.69;4488460;31;33821;-81
2023/01/28 04:08:36;;;;;;;;;;;;;;;5.95;53.95;99166.34;4480705;31;34295;-86
2023/01/28 04:11:18;;;;;;;;;;;;;;;6.09;53.37;99162.47;4484584;31;34002;-86
2023/01/28 04:13:47;;;;;;;;;;;;;;;6.37;51.94;99153.03;4484566;32;34448;-86
2023/01/28 04:16:15;;;;;;;;;;;;;;;6.12;52.78;99159.12;4491334;31;35152;-85
2023/01/28 04:18:42;;;;;;;;;;;;;;;7.07;50.42;99152.38;4483985;31;34397;-86
2023/01/28 04:21:10;;;;;;;;;;;;;;;6.03;52.95;99162.31;4484575;31;34942;-85
2023/01/28 04:23:37;;;;;;;;;;;;;;;7.10;49.95;99160.22;4485171;31;34630;-85
2023/01/28 04:26:06;;;;;;;;;;;;;;;7.06;50.13;99160.97;4491446;31;34040;-85
2023/01/28 04:28:33;;;;;;;;;;;;;;;7.59;48.94;99161.47;4477192;32;33447;-83
2023/01/28 04:31:01;;;;;;;;;;;;;;;7.12;50.16;99168.84;4486649;31;33533;-83
2023/01/28 04:33:30;;;;;;;;;;;;;;;7.11;50.31;99174.84;4493301;31;34446;-85
2023/01/28 04:35:58;;;;;;;;;;;;;;;7.44;49.33;99171.41;4489620;31;34810;-85
2023/01/28 04:38:27;;;;;;;;;;;;;;;7.20;49.88;99172.50;4498692;31;33585;-83
2023/01/28 04:40:55;;;;;;;;;;;;;;;7.10;50.37;99169.66;4496670;31;33863;-82
2023/01/28 04:43:23;;;;;;;;;;;;;;;6.28;52.15;99171.63;4497252;31;34491;-85
2023/01/28 04:45:50;;;;;;;;;;;;;;;6.54;51.65;99174.97;4495454;31;34886;-85
2023/01/28 04:48:18;;;;;;;;;;;;;;;7.31;49.42;99173.66;4487836;31;33635;-84
2023/01/28 04:50:45;;;;;;;;;;;;;;;7.60;48.70;99168.34;4491580;31;34870;-83
2023/01/28 04:53:13;;;;;;;;;;;;;;;5.04;55.60;99185.59;4493598;31;34216;-84
2023/01/28 04:55:44;;;;;;;;;;;;;;;5.42;54.95;99180.88;4484702;31;34813;-85
2023/01/28 04:58:12;;;;;;;;;;;;;;;4.23;58.11;99187.75;4481688;31;32618;-83
2023/01/28 05:00:40;;;;;;;;;;;;;;;3.92;59.96;99201.09;4498332;31;34152;-84
2023/01/28 05:03:08;;;;;;;;;;;;;;;5.23;55.96;99185.41;4485014;31;34512;-82
2023/01/28 05:05:36;;;;;;;;;;;;;;;6.80;51.37;99186.03;4496281;31;35080;-85
2023/01/28 05:08:05;;;;;;;;;;;;;;;7.15;50.26;99188.69;4488460;31;33230;-85
2023/01/28 05:10:32;;;;;;;;;;;;;;;6.20;52.51;99192.00;4489675;31;35032;-85
2023/01/28 05:13:00;;;;;;;;;;;;;;;6.73;51.44;99194.41;4488137;31;34111;-86
2023/01/28 05:15:27;;;;;;;;;;;;;;;6.55;51.86;99197.31;4484519;31;33361;-81
2023/01/28 05:17:56;;;;;;;;;;;;;;;7.16;50.02;99195.56;4489029;31;34177;-83
2023/01/28 05:20:24;;;;;;;;;;;;;;;7.74;48.42;99194.50;4491853;31;34704;-82
2023/01/28 05:22:52;;;;;;;;;;;;;;;7.43;48.91;99203.19;4476844;31;35577;-81
2023/01/28 05:25:19;;;;;;;;;;;;;;;6.82;50.54;99200.72;4484065;32;34185;-85
2023/01/28 05:27:50;;;;;;;;;;;;;;;7.39;48.97;99209.97;4484095;32;33573;-85
2023/01/28 05:30:18;;;;;;;;;;;;;;;6.56;51.13;99202.53;4482668;32;34034;-85
2023/01/28 05:32:45;;;;;;;;;;;;;;;7.11;49.79;99202.31;4471484;31;34380;-83
2023/01/28 05:35:14;;;;;;;;;;;;;;;7.56;48.61;99207.81;4491103;31;33619;-84
2023/01/28 05:37:41;;;;;;;;;;;;;;;8.04;47.07;99202.09;4498259;31;33452;-84
2023/01/28 05:40:10;;;;;;;;;;;;;;;6.01;51.80;99223.13;4493705;31;35217;-84
2023/01/28 05:42:38;;;;;;;;;;;;;;;7.31;49.33;99207.19;4484592;31;34925;-84
2023/01/28 05:45:07;;;;;;;;;;;;;;;6.56;51.13;99212.84;4498520;31;34312;-84
2023/01/28 05:47:35;;;;;;;;;;;;;;;7.62;48.22;99205.41;4490059;31;33491;-85
2023/01/28 05:50:03;;;;;;;;;;;;;;;7.66;48.32;99214.97;4483989;31;34271;-84
2023/01/28 05:52:32;;;;;;;;;;;;;;;7.08;49.76;99213.41;4493668;31;34134;-85
2023/01/28 05:55:00;;;;;;;;;;;;;;;7.36;48.72;99211.59;4492120;31;34625;-84
2023/01/28 05:57:27;;;;;;;;;;;;;;;6.90;50.10;99218.97;4491870;31;33537;-83
2023/01/28 05:59:54;;;;;;;;;;;;;;;7.05;49.42;99223.66;4485190;31;33966;-85
2023/01/28 06:02:22;;;;;;;;;;;;;;;6.76;50.46;99220.25;4497661;31;34466;-85
2023/01/28 06:04:50;;;;;;;;;;;;;;;6.07;52.14;99218.19;4484517;31;34284;-85
2023/01/28 06:07:19;;;;;;;;;;;;;;;6.38;51.96;99226.88;4487243;31;33423;-84
2023/01/28 06:09:47;;;;;;;;;;;;;;;6.45;51.62;99223.66;4490638;31;34361;-86
2023/01/28 06:12:15;;;;;;;;;;;;;;;6.42;52.11;99228.69;4483554;32;35313;-85
2023/01/28 06:14:44;;;;;;;;;;;;;;;6.55;51.24;99217.91;4491806;31;34876;-86
2023/01/28 06:17:11;;;;;;;;;;;;;;;6.77;51.08;99228.03;4492619;31;34213;-84
2023/01/28 06:19:39;;;;;;;;;;;;;;;6.92;50.29;99232.75;4499108;31;34328;-84
2023/01/28 06:22:06;;;;;;;;;;;;;;;6.41;51.41;99229.53;4490319;31;35155;-83
2023/01/28 06:24:34;;;;;;;;;;;;;;;5.66;53.57;99233.13;4489955;31;35076;-84
2023/01/28 06:27:01;;;;;;;;;;;;;;;4.41;57.14;99239.81;4486995;31;33529;-86
2023/01/28 06:32:15;;;;;;;;;;;;;;;5.97;53.86;99245.31;4491570;31;34543;-85
2023/01/28 06:34:42;;;;;;;;;;;;;;;6.31;52.41;99247.25;4483379;32;34783;-85
2023/01/28 06:37:13;;;;;;;;;;;;;;;6.19;52.96;99252.03;4496036;31;33142;-85
2023/01/28 06:39:40;;;;;;;;;;;;;;;6.26;52.77;99253.97;4485505;31;33941;-85
2023/01/28 06:42:07;;;;;;;;;;;;;;;6.78;51.32;99247.84;4474214;31;34698;-86
2023/01/28 06:44:35;;;;;;;;;;;;;;;7.36;49.85;99256.31;4483265;32;34747;-86
2023/01/28 06:47:02;;;;;;;;;;;;;;;7.63;48.66;99258.75;4484451;31;33338;-80
2023/01/28 06:49:30;;;;;;;;;;;;;;;6.95;50.62;99257.75;4485167;31;34237;-83
2023/01/28 06:51:57;;;;;;;;;;;;;;;6.99;50.37;99264.72;4482998;31;35369;-83
2023/01/28 06:54:24;;;;;;;;;;;;;;;7.49;48.51;99273.84;4497994;31;33992;-83
2023/01/28 06:56:51;;;;;;;;;;;;;;;6.50;50.90;99278.72;4495084;31;34083;-84
2023/01/28 06:59:19;;;;;;;;;;;;;;;6.99;50.19;99280.19;4498619;31;34030;-83
2023/01/28 07:01:46;;;;;;;;;;;;;;;5.68;53.95;99288.06;4492447;31;35049;-83
2023/01/28 07:04:13;;;;;;;;;;;;;;;6.12;52.75;99291.28;4486310;31;33572;-84
2023/01/28 07:06:41;;;;;;;;;;;;;;;6.95;50.64;99283.50;4488013;31;34003;-83
2023/01/28 07:09:08;;;;;;;;;;;;;;;7.24;49.71;99282.66;4490304;31;34345;-82
2023/01/28 07:11:35;;;;;;;;;;;;;;;7.11;50.14;99288.25;4482926;32;33890;-84
2023/01/28 07:14:03;;;;;;;;;;;;;;;7.18;50.08;99287.63;4482832;31;34151;-84
2023/01/28 07:16:31;;;;;;;;;;;;;;;5.63;53.77;99294.75;4487729;31;31995;-84
2023/01/28 07:18:58;;;;;;;;;;;;;;;5.20;55.37;99302.66;4493415;31;35116;-82
2023/01/28 07:21:25;;;;;;;;;;;;;;;6.26;52.47;99300.31;4490035;31;34461;-84
2023/01/28 07:23:52;;;;;;;;;;;;;;;6.87;51.18;99303.91;4482644;31;34209;-84
2023/01/28 07:26:20;;;;;;;;;;;;;;;6.89;51.15;99309.09;4489912;31;33255;-86
2023/01/28 07:28:47;;;;;;;;;;;;;;;6.55;51.27;99303.81;4482402;31;34960;-84
2023/01/28 07:31:14;;;;;;;;;;;;;;;5.85;53.50;99312.66;4483107;31;35055;-81
2023/01/28 07:33:42;;;;;;;;;;;;;;;6.20;52.96;99319.84;4483906;31;34350;-83
2023/01/28 07:36:09;;;;;;;;;;;;;;;6.71;51.72;99309.44;4483788;31;33262;-84
2023/01/28 07:38:36;;;;;;;;;;;;;;;6.82;51.39;99314.09;4497184;31;34073;-84
2023/01/28 07:41:04;;;;;;;;;;;;;;;5.82;53.61;99314.25;4484615;32;34105;-83
2023/01/28 07:43:31;;;;;;;;;;;;;;;6.92;51.11;99319.50;4484419;32;35486;-84
2023/01/28 07:45:59;;;;;;;;;;;;;;;6.85;50.84;99315.00;4484397;32;32868;-84
2023/01/28 07:48:26;;;;;;;;;;;;;;;6.28;52.13;99318.38;4483741;31;34912;-83
2023/01/28 07:50:57;;;;;;;;;;;;;;;5.99;53.60;99315.75;4480966;32;34638;-81
2023/01/28 07:53:24;;;;;;;;;;;;;;;6.08;53.30;99320.31;4476343;31;33935;-84
2023/01/28 07:55:51;;;;;;;;;;;;;;;6.02;53.11;99321.00;4495324;31;33338;-82
2023/01/28 07:58:18;;;;;;;;;;;;;;;5.79;54.11;99320.16;4495038;31;33925;-82
2023/01/28 08:00:46;;;;;;;;;;;;;;;6.10;53.51;99318.69;4487056;31;34739;-84
2023/01/28 08:03:14;;;;;;;;;;;;;;;5.20;55.10;99329.22;4489773;31;34927;-83
2023/01/28 08:05:46;;;;;;;;;;;;;;;4.94;56.67;99329.97;4469953;32;32935;-83
2023/01/28 08:08:13;;;;;;;;;;;;;;;5.88;54.03;99331.63;4476602;31;34756;-82
2023/01/28 08:10:42;;;;;;;;;;;;;;;5.45;55.15;99319.81;4482599;31;34093;-83
2023/01/28 08:13:10;;;;;;;;;;;;;;;6.49;52.14;99333.66;4487231;31;34044;-82
2023/01/28 08:15:37;;;;;;;;;;;;;;;5.18;55.31;99330.84;4486758;31;33299;-83
2023/01/28 08:18:05;;;;;;;;;;;;;;;6.46;52.22;99329.28;4482295;31;34498;-83
2023/01/28 08:20:33;;;;;;;;;;;;;;;5.54;54.33;99333.03;4483036;32;35745;-83
2023/01/28 08:23:07;;;;;;;;;;;;;;;6.24;53.42;99330.28;4483565;31;34510;-84
2023/01/28 08:25:34;;;;;;;;;;;;;;;6.50;52.06;99325.09;4490160;31;34237;-82
2023/01/28 08:28:09;;;;;;;;;;;;;;;5.89;54.02;99329.09;4499930;31;34309;-81
2023/01/28 08:30:50;;;;;;;;;;;;;;;6.17;53.41;99325.75;4497111;31;34265;-81
2023/01/28 08:33:18;;;;;;;;;;;;;;;5.00;55.59;99331.06;4499703;31;34275;-83
2023/01/28 08:35:46;;;;;;;;;;;;;;;5.33;56.16;99330.53;4484912;31;34205;-83
2023/01/28 08:38:16;;;;;;;;;;;;;;;4.97;57.13;99340.38;4497447;31;35013;-81
2023/01/28 08:40:44;;;;;;;;;;;;;;;5.30;55.65;99341.62;4499635;31;33534;-83
2023/01/28 08:43:11;;;;;;;;;;;;;;;5.41;56.12;99339.41;4499683;31;33943;-82
2023/01/28 08:45:38;;;;;;;;;;;;;;;5.12;56.68;99346.94;4499903;31;33032;-82
2023/01/28 08:48:06;;;;;;;;;;;;;;;5.54;55.73;99346.75;4499710;31;34883;-81
2023/01/28 08:50:35;;;;;;;;;;;;;;;5.86;55.02;99345.28;4499895;31;33778;-82
2023/01/28 08:53:03;;;;;;;;;;;;;;;6.10;54.14;99341.84;4484604;31;34284;-82
2023/01/28 08:55:30;;;;;;;;;;;;;;;5.77;54.98;99356.97;4498772;31;33626;-79
2023/01/28 08:58:02;;;;;;;;;;;;;;;5.56;55.34;99349.38;4476298;31;34218;-81
2023/01/28 09:00:30;;;;;;;;;;;;;;;6.23;54.16;99356.84;4470663;31;33829;-81
2023/01/28 09:02:57;;;;;;;;;;;;;;;5.09;57.17;99367.38;4467598;32;33587;-83
2023/01/28 09:05:24;;;;;;;;;;;;;;;6.14;54.46;99361.72;4483980;32;33055;-79
2023/01/28 09:07:52;;;;;;;;;;;;;;;4.97;57.65;99371.19;4483587;32;34223;-81
2023/01/28 09:10:19;;;;;;;;;;;;;;;5.39;57.08;99365.91;4484206;32;34096;-82
2023/01/28 09:12:46;;;;;;;;;;;;;;;5.54;56.84;99366.44;4484134;31;35117;-80
2023/01/28 09:15:14;;;;;;;;;;;;;;;4.77;58.51;99379.00;4496458;31;33431;-81
2023/01/28 09:17:41;;;;;;;;;;;;;;;5.42;56.95;99371.13;4499630;31;34160;-82
2023/01/28 09:20:08;;;;;;;;;;;;;;;6.19;54.88;99372.16;4498947;31;35341;-81
2023/01/28 09:22:36;;;;;;;;;;;;;;;5.87;56.00;99377.03;4498919;31;35103;-81
2023/01/28 09:25:03;;;;;;;;;;;;;;;5.76;55.89;99371.53;4499751;31;33313;-83
2023/01/28 09:27:30;;;;;;;;;;;;;;;6.50;53.79;99371.44;4499480;31;33897;-82
2023/01/28 09:29:58;;;;;;;;;;;;;;;5.23;57.42;99382.47;4472471;31;34218;-80
2023/01/28 09:32:25;;;;;;;;;;;;;;;6.74;53.28;99379.06;4492136;31;33749;-83
2023/01/28 09:34:52;;;;;;;;;;;;;;;6.41;54.56;99381.47;4486282;31;32993;-81
2023/01/28 09:37:20;;;;;;;;;;;;;;;6.92;53.01;99376.19;4496827;31;34160;-81
2023/01/28 09:39:47;;;;;;;;;;;;;;;6.87;52.41;99372.62;4484058;32;34354;-82
2023/01/28 09:42:26;;;;;;;;;;;;;;;6.75;52.79;99371.41;4485673;31;34028;-85
2023/01/28 09:45:13;;;;;;;;;;;;;;;7.64;50.81;99366.28;4484708;31;33330;-81
2023/01/28 09:47:42;;;;;;;;;;;;;;;7.70;50.56;99376.78;4489106;31;33244;-81
2023/01/28 09:50:15;;;;;;;;;;;;;;;6.98;51.26;99376.41;4487641;31;35224;-82
2023/01/28 09:52:43;;;;;;;;;;;;;;;5.73;55.19;99374.00;4483943;31;33976;-82
2023/01/28 09:55:13;;;;;;;;;;;;;;;5.20;57.04;99390.91;4474780;31;34114;-83
2023/01/28 09:57:43;;;;;;;;;;;;;;;5.46;57.20;99380.72;4492751;31;33877;-82
2023/01/28 10:00:17;;;;;;;;;;;;;;;6.29;54.51;99377.66;4489292;31;34286;-82
2023/01/28 10:03:03;;;;;;;;;;;;;;;6.91;52.57;99369.31;4472439;32;34468;-82
2023/01/28 10:05:30;;;;;;;;;;;;;;;5.99;54.87;99372.38;4471605;31;33285;-82
2023/01/28 10:08:16;;;;;;;;;;;;;;;6.58;53.96;99364.84;4483377;31;34358;-82
2023/01/28 10:10:46;;;;;;;;;;;;;;;5.88;55.66;99365.06;4495629;31;32994;-81
2023/01/28 10:13:36;;;;;;;;;;;;;;;5.68;57.73;99370.38;4472988;31;34162;-82
2023/01/28 10:16:05;;;;;;;;;;;;;;;6.34;55.08;99380.38;4487566;31;32574;-82
2023/01/28 10:18:53;;;;;;;;;;;;;;;6.65;53.29;99361.63;4460291;32;33099;-81
2023/01/28 10:21:30;;;;;;;;;;;;;;;5.57;56.27;99362.28;4480789;31;34188;-82
2023/01/28 10:23:57;;;;;;;;;;;;;;;7.04;53.06;99366.25;4484193;31;34121;-82
2023/01/28 10:26:26;;;;;;;;;;;;;;;6.68;53.74;99366.88;4486130;31;33242;-82
2023/01/28 10:28:55;;;;;;;;;;;;;;;7.16;51.68;99374.38;4470295;31;32771;-82
2023/01/28 10:31:23;;;;;;;;;;;;;;;7.47;51.57;99362.38;4474197;31;34928;-82
2023/01/28 10:33:50;;;;;;;;;;;;;;;6.53;53.75;99363.84;4487025;31;34027;-83
2023/01/28 10:36:17;;;;;;;;;;;;;;;6.91;51.45;99366.72;4484425;31;33836;-81
2023/01/28 10:38:45;;;;;;;;;;;;;;;6.70;52.36;99372.06;4486103;31;33989;-81
2023/01/28 10:41:14;;;;;;;;;;;;;;;7.10;51.05;99370.72;4487423;31;34206;-82
2023/01/28 10:43:42;;;;;;;;;;;;;;;7.20;51.02;99368.47;4469457;31;34260;-82
2023/01/28 10:46:16;;;;;;;;;;;;;;;5.63;55.52;99369.34;4491986;31;34186;-83
2023/01/28 10:49:02;;;;;;;;;;;;;;;6.02;54.93;99374.16;4469892;31;34075;-83
2023/01/28 10:51:31;;;;;;;;;;;;;;;6.97;53.16;99369.47;4490082;31;35508;-83
2023/01/28 10:53:58;;;;;;;;;;;;;;;6.34;54.45;99376.09;4486524;31;34489;-83
2023/01/28 10:56:26;;;;;;;;;;;;;;;7.71;50.26;99363.03;4467350;32;34285;-84
2023/01/28 10:59:00;;;;;;;;;;;;;;;7.40;50.58;99366.47;4485375;31;34253;-84
2023/01/28 11:01:38;;;;;;;;;;;;;;;6.86;52.19;99368.28;4491366;31;34027;-84
2023/01/28 11:04:05;;;;;;;;;;;;;;;7.31;51.45;99367.09;4481135;31;34035;-86
2023/01/28 11:06:32;;;;;;;;;;;;;;;7.76;50.23;99364.00;4470788;32;32920;-81
2023/01/28 11:09:00;;;;;;;;;;;;;;;8.44;48.29;99368.37;4486693;31;35026;-84
2023/01/28 11:11:28;;;;;;;;;;;;;;;7.64;50.59;99365.41;4485945;31;32740;-83
2023/01/28 11:13:57;;;;;;;;;;;;;;;6.90;51.67;99367.56;4487020;31;34369;-84
2023/01/28 11:16:26;;;;;;;;;;;;;;;6.43;53.43;99372.06;4486145;31;34081;-83
2023/01/28 11:19:03;;;;;;;;;;;;;;;6.71;52.54;99364.41;4485603;31;34055;-83
2023/01/28 11:21:30;;;;;;;;;;;;;;;6.49;53.56;99373.16;4474077;31;35175;-83
2023/01/28 11:23:59;;;;;;;;;;;;;;;7.19;51.39;99365.84;4483612;31;34272;-88
2023/01/28 11:26:27;;;;;;;;;;;;;;;6.63;52.75;99362.41;4472553;31;33313;-83
2023/01/28 11:28:54;;;;;;;;;;;;;;;7.43;50.62;99357.94;4476764;31;34162;-83
2023/01/28 11:31:25;;;;;;;;;;;;;;;6.70;51.92;99365.22;4488709;31;35108;-83
2023/01/28 11:33:56;;;;;;;;;;;;;;;6.33;53.89;99361.50;4491325;31;34373;-82
2023/01/28 11:36:27;;;;;;;;;;;;;;;7.46;50.63;99352.84;4492486;31;32454;-84
2023/01/28 11:38:55;;;;;;;;;;;;;;;7.90;49.37;99353.19;4473388;31;34580;-83
2023/01/28 11:41:25;;;;;;;;;;;;;;;6.85;52.20;99354.50;4487845;31;34858;-83
2023/01/28 11:43:55;;;;;;;;;;;;;;;6.60;53.10;99357.19;4487377;31;33994;-81
2023/01/28 11:46:42;;;;;;;;;;;;;;;7.52;51.23;99355.63;4479476;31;33648;-83
2023/01/28 11:49:09;;;;;;;;;;;;;;;6.29;53.35;99359.66;4491399;31;33698;-84
2023/01/28 11:51:42;;;;;;;;;;;;;;;6.98;52.11;99355.78;4491646;31;34044;-81
2023/01/28 11:54:16;;;;;;;;;;;;;;;6.74;52.54;99361.94;4488112;31;35404;-82
2023/01/28 11:56:47;;;;;;;;;;;;;;;7.50;50.02;99354.69;4462302;32;32028;-82
2023/01/28 11:59:31;;;;;;;;;;;;;;;7.10;50.13;99348.41;4495174;31;33991;-84
2023/01/28 12:02:17;;;;;;;;;;;;;;;7.26;49.82;99347.13;4472333;31;34319;-83
2023/01/28 12:05:11;;;;;;;;;;;;;;;7.96;48.86;99343.03;4483932;32;34459;-82
2023/01/28 12:07:54;;;;;;;;;;;;;;;8.27;48.19;99348.13;4494590;31;34143;-81
2023/01/28 12:10:24;;;;;;;;;;;;;;;7.79;49.11;99343.47;4485351;31;34762;-81
2023/01/28 12:13:02;;;;;;;;;;;;;;;7.13;50.91;99340.75;4480880;31;34096;-81
2023/01/28 12:15:50;;;;;;;;;;;;;;;7.78;49.14;99346.88;4497961;31;34041;-81
2023/01/28 12:18:30;;;;;;;;;;;;;;;8.08;48.45;99333.03;4491992;31;33139;-83
2023/01/28 12:21:07;;;;;;;;;;;;;;;7.99;48.97;99337.94;4475436;31;35139;-83
2023/01/28 12:23:37;;;;;;;;;;;;;;;7.97;49.46;99335.31;4472657;32;34342;-81
2023/01/28 12:26:05;;;;;;;;;;;;;;;8.09;49.18;99339.06;4477526;31;34821;-82
2023/01/28 12:28:48;;;;;;;;;;;;;;;8.05;48.92;99338.09;4496441;31;33560;-81
2023/01/28 12:31:34;;;;;;;;;;;;;;;7.39;49.93;99330.31;4475660;31;33848;-81
2023/01/28 12:34:06;;;;;;;;;;;;;;;6.53;53.14;99338.06;4488648;31;33794;-81
2023/01/28 12:36:41;;;;;;;;;;;;;;;7.62;50.60;99344.72;4474546;31;33900;-81
2023/01/28 12:39:25;;;;;;;;;;;;;;;7.73;49.90;99340.72;4472031;31;34367;-80
2023/01/28 12:42:02;;;;;;;;;;;;;;;7.96;49.32;99338.75;4470534;31;33871;-82
2023/01/28 12:44:34;;;;;;;;;;;;;;;7.76;50.39;99355.41;4481585;31;34381;-83
2023/01/28 12:47:04;;;;;;;;;;;;;;;9.05;47.33;99338.75;4471892;31;33939;-83
2023/01/28 12:49:36;;;;;;;;;;;;;;;8.53;48.28;99342.78;4473124;31;33548;-83
2023/01/28 12:52:14;;;;;;;;;;;;;;;7.89;49.87;99344.59;4476210;32;33865;-82
2023/01/28 12:55:17;;;;;;;;;;;;;;;7.58;50.66;99342.91;4469265;31;35153;-83
2023/01/28 12:57:45;;;;;;;;;;;;;;;8.07;49.38;99345.87;4438693;32;34212;-81
2023/01/28 13:00:26;;;;;;;;;;;;;;;8.10;49.14;99346.81;4477219;31;34320;-83
2023/01/28 13:02:59;;;;;;;;;;;;;;;7.88;49.67;99347.09;4479801;31;33814;-81
2023/01/28 13:05:31;;;;;;;;;;;;;;;9.20;47.19;99341.66;4490440;31;35058;-81
2023/01/28 13:08:04;;;;;;;;;;;;;;;9.03;46.83;99340.44;4478528;31;34115;-81
2023/01/28 13:10:39;;;;;;;;;;;;;;;9.14;47.12;99351.03;4473589;31;34106;-81
2023/01/28 13:13:08;;;;;;;;;;;;;;;9.14;47.13;99349.31;4484637;31;33797;-81
2023/01/28 13:15:35;;;;;;;;;;;;;;;7.10;51.35;99353.56;4475999;31;34242;-82
2023/01/28 13:18:03;;;;;;;;;;;;;;;7.52;50.53;99365.94;4472756;32;35019;-82
2023/01/28 13:20:35;;;;;;;;;;;;;;;8.35;48.21;99365.53;4488298;31;34150;-81
2023/01/28 13:23:04;;;;;;;;;;;;;;;8.52;46.75;99366.84;4477273;31;34266;-82
2023/01/28 13:25:33;;;;;;;;;;;;;;;7.61;49.82;99365.31;4484825;31;33008;-81
2023/01/28 13:28:01;;;;;;;;;;;;;;;7.91;49.29;99360.09;4488236;31;33850;-81
2023/01/28 13:30:30;;;;;;;;;;;;;;;7.72;50.12;99366.47;4487881;31;33393;-84
2023/01/28 13:33:02;;;;;;;;;;;;;;;8.39;48.28;99364.81;4494320;31;34040;-84
2023/01/28 13:35:36;;;;;;;;;;;;;;;7.75;49.78;99371.72;4477169;32;34830;-83
2023/01/28 13:38:15;;;;;;;;;;;;;;;8.16;49.04;99370.25;4477333;31;33706;-81
2023/01/28 13:40:42;;;;;;;;;;;;;;;8.24;48.80;99370.44;4481073;31;33299;-81
2023/01/28 13:43:24;;;;;;;;;;;;;;;8.09;48.90;99376.06;4499451;31;34169;-83
2023/01/28 13:45:56;;;;;;;;;;;;;;;7.59;50.18;99382.47;4484802;31;34364;-81
2023/01/28 13:48:32;;;;;;;;;;;;;;;7.69;49.70;99377.63;4498637;31;34927;-84